sensor_id;sensor_type;location;lat;lon;timestamp;temperature;humidity
15409;DHT22;7803;48.130;13.788;2023-04-25T00:00:49;23.00;76.10
15409;DHT22;7803;48.130;13.788;2023-04-25T00:03:53;23.00;76.10
15409;DHT22;7803;48.130;13.788;2023-04-25T00:06:55;22.90;76.10
15409;DHT22;7803;48.130;13.788;2023-04-25T00:09:58;22.90;76.20
15409;DHT22;7803;48.130;13.788;2023-04-25T00:13:00;22.90;76.20
15409;DHT22;7803;48.130;13.788;2023-04-25T00:16:05;22.90;76.10
15409;DHT22;7803;48.130;13.788;2023-04-25T00:19:07;22.90;77.10
15409;DHT22;7803;48.130;13.788;2023-04-25T00:22:10;22.90;76.20
15409;DHT22;7803;48.130;13.788;2023-04-25T00:25:12;22.80;76.20
15409;DHT22;7803;48.130;13.788;2023-04-25T00:28:14;22.80;76.20
15409;DHT22;7803;48.130;13.788;2023-04-25T00:31:18;22.80;76.30
15409;DHT22;7803;48.130;13.788;2023-04-25T00:34:20;22.80;76.20
15409;DHT22;7803;48.130;13.788;2023-04-25T00:37:22;22.80;76.20
15409;DHT22;7803;48.130;13.788;2023-04-25T00:40:24;22.80;76.20
15409;DHT22;7803;48.130;13.788;2023-04-25T00:43:26;22.80;76.20
15409;DHT22;7803;48.130;13.788;2023-04-25T00:46:31;22.80;76.20
15409;DHT22;7803;48.130;13.788;2023-04-25T00:49:33;22.80;76.30
15409;DHT22;7803;48.130;13.788;2023-04-25T00:52:35;22.80;76.20
15409;DHT22;7803;48.130;13.788;2023-04-25T00:55:37;22.80;76.30
15409;DHT22;7803;48.130;13.788;2023-04-25T00:58:40;22.80;76.40
15409;DHT22;7803;48.130;13.788;2023-04-25T01:01:45;22.80;76.40
15409;DHT22;7803;48.130;13.788;2023-04-25T01:04:48;22.80;76.50
15409;DHT22;7803;48.130;13.788;2023-04-25T01:07:50;22.80;76.50
15409;DHT22;7803;48.130;13.788;2023-04-25T01:10:52;22.80;77.30
15409;DHT22;7803;48.130;13.788;2023-04-25T01:13:54;22.80;76.40
15409;DHT22;7803;48.130;13.788;2023-04-25T01:16:58;22.80;76.40
15409;DHT22;7803;48.130;13.788;2023-04-25T01:20:03;22.70;76.40
15409;DHT22;7803;48.130;13.788;2023-04-25T01:23:07;22.70;76.40
15409;DHT22;7803;48.130;13.788;2023-04-25T01:26:10;22.70;76.40
15409;DHT22;7803;48.130;13.788;2023-04-25T01:29:13;22.70;76.40
15409;DHT22;7803;48.130;13.788;2023-04-25T01:32:15;22.70;76.40
15409;DHT22;7803;48.130;13.788;2023-04-25T01:35:17;22.70;76.40
15409;DHT22;7803;48.130;13.788;2023-04-25T01:38:20;22.70;76.40
15409;DHT22;7803;48.130;13.788;2023-04-25T01:41:22;22.70;76.50
15409;DHT22;7803;48.130;13.788;2023-04-25T01:44:25;22.70;76.60
15409;DHT22;7803;48.130;13.788;2023-04-25T01:47:27;22.70;76.40
15409;DHT22;7803;48.130;13.788;2023-04-25T01:50:29;22.70;76.40
15409;DHT22;7803;48.130;13.788;2023-04-25T01:53:33;22.70;76.40
15409;DHT22;7803;48.130;13.788;2023-04-25T01:56:37;22.70;76.50
15409;DHT22;7803;48.130;13.788;2023-04-25T01:59:39;22.70;76.50
15409;DHT22;7803;48.130;13.788;2023-04-25T02:02:42;22.70;76.50
15409;DHT22;7803;48.130;13.788;2023-04-25T02:05:44;22.70;76.50
15409;DHT22;7803;48.130;13.788;2023-04-25T02:08:48;22.60;76.40
15409;DHT22;7803;48.130;13.788;2023-04-25T02:11:50;22.70;76.60
15409;DHT22;7803;48.130;13.788;2023-04-25T02:14:52;22.70;76.60
15409;DHT22;7803;48.130;13.788;2023-04-25T02:17:54;22.60;77.40
15409;DHT22;7803;48.130;13.788;2023-04-25T02:20:58;22.60;76.50
15409;DHT22;7803;48.130;13.788;2023-04-25T02:24:03;22.60;76.50
15409;DHT22;7803;48.130;13.788;2023-04-25T02:27:06;22.60;76.40
15409;DHT22;7803;48.130;13.788;2023-04-25T02:30:08;22.70;76.60
15409;DHT22;7803;48.130;13.788;2023-04-25T02:33:10;22.60;76.40
15409;DHT22;7803;48.130;13.788;2023-04-25T02:36:12;22.60;76.40
15409;DHT22;7803;48.130;13.788;2023-04-25T02:39:16;22.60;76.50
15409;DHT22;7803;48.130;13.788;2023-04-25T02:42:18;22.60;76.50
15409;DHT22;7803;48.130;13.788;2023-04-25T02:45:20;22.60;76.50
15409;DHT22;7803;48.130;13.788;2023-04-25T02:48:22;22.60;76.50
15409;DHT22;7803;48.130;13.788;2023-04-25T02:51:24;22.60;76.60
15409;DHT22;7803;48.130;13.788;2023-04-25T02:54:28;22.60;76.40
15409;DHT22;7803;48.130;13.788;2023-04-25T02:57:30;22.60;76.60
15409;DHT22;7803;48.130;13.788;2023-04-25T03:00:32;22.60;76.60
15409;DHT22;7803;48.130;13.788;2023-04-25T03:03:34;22.60;76.50
15409;DHT22;7803;48.130;13.788;2023-04-25T03:06:36;22.60;76.40
15409;DHT22;7803;48.130;13.788;2023-04-25T03:09:39;22.60;76.40
15409;DHT22;7803;48.130;13.788;2023-04-25T03:12:41;22.60;76.40
15409;DHT22;7803;48.130;13.788;2023-04-25T03:15:43;22.60;76.40
15409;DHT22;7803;48.130;13.788;2023-04-25T03:18:45;22.60;76.20
15409;DHT22;7803;48.130;13.788;2023-04-25T03:21:47;22.50;76.20
15409;DHT22;7803;48.130;13.788;2023-04-25T03:24:51;22.50;76.20
15409;DHT22;7803;48.130;13.788;2023-04-25T03:27:53;22.60;76.20
15409;DHT22;7803;48.130;13.788;2023-04-25T03:30:56;22.50;76.20
15409;DHT22;7803;48.130;13.788;2023-04-25T03:33:57;22.60;76.20
15409;DHT22;7803;48.130;13.788;2023-04-25T03:37:00;22.60;76.20
15409;DHT22;7803;48.130;13.788;2023-04-25T03:40:04;22.60;76.20
15409;DHT22;7803;48.130;13.788;2023-04-25T03:43:06;22.60;76.20
15409;DHT22;7803;48.130;13.788;2023-04-25T03:46:08;22.60;76.10
15409;DHT22;7803;48.130;13.788;2023-04-25T03:49:10;22.60;76.10
15409;DHT22;7803;48.130;13.788;2023-04-25T03:52:12;22.60;75.90
15409;DHT22;7803;48.130;13.788;2023-04-25T03:55:16;22.70;75.90
15409;DHT22;7803;48.130;13.788;2023-04-25T03:58:18;22.70;75.90
15409;DHT22;7803;48.130;13.788;2023-04-25T04:01:20;22.70;75.80
15409;DHT22;7803;48.130;13.788;2023-04-25T04:04:22;22.80;76.60
15409;DHT22;7803;48.130;13.788;2023-04-25T04:07:24;22.80;76.80
15409;DHT22;7803;48.130;13.788;2023-04-25T04:10:27;22.80;76.30
15409;DHT22;7803;48.130;13.788;2023-04-25T04:13:29;22.90;76.10
15409;DHT22;7803;48.130;13.788;2023-04-25T04:16:31;22.90;76.20
15409;DHT22;7803;48.130;13.788;2023-04-25T04:19:33;23.00;75.70
15409;DHT22;7803;48.130;13.788;2023-04-25T04:22:35;23.00;75.60
15409;DHT22;7803;48.130;13.788;2023-04-25T04:25:39;23.00;75.50
15409;DHT22;7803;48.130;13.788;2023-04-25T04:28:43;23.00;75.40
15409;DHT22;7803;48.130;13.788;2023-04-25T04:31:45;23.10;75.40
15409;DHT22;7803;48.130;13.788;2023-04-25T04:34:47;23.00;75.30
15409;DHT22;7803;48.130;13.788;2023-04-25T04:37:49;23.00;75.30
15409;DHT22;7803;48.130;13.788;2023-04-25T04:40:52;23.10;75.30
15409;DHT22;7803;48.130;13.788;2023-04-25T04:43:54;23.10;75.20
15409;DHT22;7803;48.130;13.788;2023-04-25T04:46:56;23.10;75.20
15409;DHT22;7803;48.130;13.788;2023-04-25T04:49:58;23.10;75.20
15409;DHT22;7803;48.130;13.788;2023-04-25T04:53:01;23.10;75.20
15409;DHT22;7803;48.130;13.788;2023-04-25T04:56:05;23.10;75.10
15409;DHT22;7803;48.130;13.788;2023-04-25T04:59:07;23.10;75.10
15409;DHT22;7803;48.130;13.788;2023-04-25T05:02:09;23.10;75.00
15409;DHT22;7803;48.130;13.788;2023-04-25T05:05:11;23.10;75.00
15409;DHT22;7803;48.130;13.788;2023-04-25T05:08:13;23.10;75.00
15409;DHT22;7803;48.130;13.788;2023-04-25T05:11:16;23.10;75.00
15409;DHT22;7803;48.130;13.788;2023-04-25T05:14:18;23.10;74.90
15409;DHT22;7803;48.130;13.788;2023-04-25T05:17:20;23.10;74.90
15409;DHT22;7803;48.130;13.788;2023-04-25T05:20:23;23.10;74.90
15409;DHT22;7803;48.130;13.788;2023-04-25T05:23:24;23.20;75.30
15409;DHT22;7803;48.130;13.788;2023-04-25T05:26:29;23.20;74.90
15409;DHT22;7803;48.130;13.788;2023-04-25T05:29:32;23.20;74.90
15409;DHT22;7803;48.130;13.788;2023-04-25T05:32:34;23.20;74.90
15409;DHT22;7803;48.130;13.788;2023-04-25T05:35:36;23.20;74.80
15409;DHT22;7803;48.130;13.788;2023-04-25T05:38:38;23.20;74.70
15409;DHT22;7803;48.130;13.788;2023-04-25T05:41:41;23.20;74.70
15409;DHT22;7803;48.130;13.788;2023-04-25T05:44:44;23.30;74.80
15409;DHT22;7803;48.130;13.788;2023-04-25T05:47:46;23.20;74.60
15409;DHT22;7803;48.130;13.788;2023-04-25T05:50:48;23.30;74.70
15409;DHT22;7803;48.130;13.788;2023-04-25T05:53:50;23.30;74.50
15409;DHT22;7803;48.130;13.788;2023-04-25T05:56:53;23.30;74.50
15409;DHT22;7803;48.130;13.788;2023-04-25T05:59:55;23.30;74.50
15409;DHT22;7803;48.130;13.788;2023-04-25T06:02:57;23.30;74.30
15409;DHT22;7803;48.130;13.788;2023-04-25T06:05:59;23.30;74.30
15409;DHT22;7803;48.130;13.788;2023-04-25T06:09:01;23.30;74.40
15409;DHT22;7803;48.130;13.788;2023-04-25T06:12:05;23.30;75.20
15409;DHT22;7803;48.130;13.788;2023-04-25T06:15:07;23.30;74.40
15409;DHT22;7803;48.130;13.788;2023-04-25T06:18:10;23.30;74.30
15409;DHT22;7803;48.130;13.788;2023-04-25T06:21:12;23.40;74.30
15409;DHT22;7803;48.130;13.788;2023-04-25T06:24:14;23.30;74.20
15409;DHT22;7803;48.130;13.788;2023-04-25T06:27:18;23.40;74.20
15409;DHT22;7803;48.130;13.788;2023-04-25T06:30:20;23.40;74.10
15409;DHT22;7803;48.130;13.788;2023-04-25T06:33:24;23.40;74.10
15409;DHT22;7803;48.130;13.788;2023-04-25T06:36:27;23.40;74.00
15409;DHT22;7803;48.130;13.788;2023-04-25T06:39:29;23.40;73.90
15409;DHT22;7803;48.130;13.788;2023-04-25T06:42:32;23.40;73.80
15409;DHT22;7803;48.130;13.788;2023-04-25T06:45:34;23.40;73.90
15409;DHT22;7803;48.130;13.788;2023-04-25T06:48:36;23.40;73.90
15409;DHT22;7803;48.130;13.788;2023-04-25T06:51:38;23.40;74.90
15409;DHT22;7803;48.130;13.788;2023-04-25T06:54:40;23.40;74.00
15409;DHT22;7803;48.130;13.788;2023-04-25T06:57:44;23.40;74.90
15409;DHT22;7803;48.130;13.788;2023-04-25T07:00:46;23.40;74.00
15409;DHT22;7803;48.130;13.788;2023-04-25T07:03:48;23.40;74.00
15409;DHT22;7803;48.130;13.788;2023-04-25T07:06:50;23.40;74.00
15409;DHT22;7803;48.130;13.788;2023-04-25T07:09:52;23.40;74.00
15409;DHT22;7803;48.130;13.788;2023-04-25T07:12:55;23.40;73.90
15409;DHT22;7803;48.130;13.788;2023-04-25T07:15:57;23.40;74.00
15409;DHT22;7803;48.130;13.788;2023-04-25T07:18:59;23.40;74.00
15409;DHT22;7803;48.130;13.788;2023-04-25T07:22:01;23.40;74.00
15409;DHT22;7803;48.130;13.788;2023-04-25T07:25:03;23.40;74.90
15409;DHT22;7803;48.130;13.788;2023-04-25T07:28:07;23.40;73.80
15409;DHT22;7803;48.130;13.788;2023-04-25T07:31:09;23.40;73.80
15409;DHT22;7803;48.130;13.788;2023-04-25T07:34:11;23.40;73.80
15409;DHT22;7803;48.130;13.788;2023-04-25T07:37:13;23.40;73.80
15409;DHT22;7803;48.130;13.788;2023-04-25T07:40:15;23.40;73.80
15409;DHT22;7803;48.130;13.788;2023-04-25T07:43:19;23.40;73.70
15409;DHT22;7803;48.130;13.788;2023-04-25T07:46:21;23.40;73.70
15409;DHT22;7803;48.130;13.788;2023-04-25T07:49:23;23.40;73.70
15409;DHT22;7803;48.130;13.788;2023-04-25T07:52:25;23.40;73.70
15409;DHT22;7803;48.130;13.788;2023-04-25T07:55:27;23.40;73.60
15409;DHT22;7803;48.130;13.788;2023-04-25T07:58:31;23.40;73.50
15409;DHT22;7803;48.130;13.788;2023-04-25T08:01:34;23.40;73.50
15409;DHT22;7803;48.130;13.788;2023-04-25T08:04:36;23.40;73.40
15409;DHT22;7803;48.130;13.788;2023-04-25T08:07:38;23.40;73.40
15409;DHT22;7803;48.130;13.788;2023-04-25T08:10:41;23.40;73.20
15409;DHT22;7803;48.130;13.788;2023-04-25T08:13:45;23.40;73.10
15409;DHT22;7803;48.130;13.788;2023-04-25T08:16:47;23.40;72.80
15409;DHT22;7803;48.130;13.788;2023-04-25T08:19:48;23.40;72.90
15409;DHT22;7803;48.130;13.788;2023-04-25T08:22:51;23.40;72.70
15409;DHT22;7803;48.130;13.788;2023-04-25T08:25:52;23.50;72.80
15409;DHT22;7803;48.130;13.788;2023-04-25T08:28:56;23.40;72.70
15409;DHT22;7803;48.130;13.788;2023-04-25T08:31:58;23.50;72.80
15409;DHT22;7803;48.130;13.788;2023-04-25T08:35:00;23.40;72.80
15409;DHT22;7803;48.130;13.788;2023-04-25T08:38:02;23.50;72.90
15409;DHT22;7803;48.130;13.788;2023-04-25T08:41:05;23.50;72.70
15409;DHT22;7803;48.130;13.788;2023-04-25T08:44:10;23.50;72.90
15409;DHT22;7803;48.130;13.788;2023-04-25T08:47:13;23.50;72.90
15409;DHT22;7803;48.130;13.788;2023-04-25T08:50:15;23.50;72.90
15409;DHT22;7803;48.130;13.788;2023-04-25T08:53:22;23.50;72.80
15409;DHT22;7803;48.130;13.788;2023-04-25T08:56:24;23.50;73.00
15409;DHT22;7803;48.130;13.788;2023-04-25T08:59:28;23.50;73.00
15409;DHT22;7803;48.130;13.788;2023-04-25T09:02:31;23.50;73.00
15409;DHT22;7803;48.130;13.788;2023-04-25T09:05:33;23.50;73.00
15409;DHT22;7803;48.130;13.788;2023-04-25T09:08:36;23.50;73.00
15409;DHT22;7803;48.130;13.788;2023-04-25T09:11:40;23.50;72.80
15409;DHT22;7803;48.130;13.788;2023-04-25T09:15:01;23.50;72.70
15409;DHT22;7803;48.130;13.788;2023-04-25T09:18:04;23.50;72.70
15409;DHT22;7803;48.130;13.788;2023-04-25T09:21:08;23.50;73.50
15409;DHT22;7803;48.130;13.788;2023-04-25T09:24:10;23.50;72.50
15409;DHT22;7803;48.130;13.788;2023-04-25T09:27:18;23.50;72.60
15409;DHT22;7803;48.130;13.788;2023-04-25T09:30:31;23.50;72.80
15409;DHT22;7803;48.130;13.788;2023-04-25T09:33:34;23.50;72.80
15409;DHT22;7803;48.130;13.788;2023-04-25T09:36:36;23.50;72.90
15409;DHT22;7803;48.130;13.788;2023-04-25T09:39:39;23.50;72.90
15409;DHT22;7803;48.130;13.788;2023-04-25T09:42:41;23.50;73.00
15409;DHT22;7803;48.130;13.788;2023-04-25T09:45:45;23.50;73.00
15409;DHT22;7803;48.130;13.788;2023-04-25T09:48:49;23.50;73.10
15409;DHT22;7803;48.130;13.788;2023-04-25T09:51:55;23.50;73.10
15409;DHT22;7803;48.130;13.788;2023-04-25T09:54:57;23.50;73.20
15409;DHT22;7803;48.130;13.788;2023-04-25T09:58:04;23.50;73.20
15409;DHT22;7803;48.130;13.788;2023-04-25T10:01:09;23.50;73.20
15409;DHT22;7803;48.130;13.788;2023-04-25T10:04:11;23.50;73.10
15409;DHT22;7803;48.130;13.788;2023-04-25T10:07:13;23.50;73.10
15409;DHT22;7803;48.130;13.788;2023-04-25T10:10:16;23.50;73.10
15409;DHT22;7803;48.130;13.788;2023-04-25T10:13:19;23.50;73.20
15409;DHT22;7803;48.130;13.788;2023-04-25T10:16:24;23.50;73.20
15409;DHT22;7803;48.130;13.788;2023-04-25T10:19:27;23.60;73.30
15409;DHT22;7803;48.130;13.788;2023-04-25T10:22:32;23.60;73.30
15409;DHT22;7803;48.130;13.788;2023-04-25T10:25:36;23.50;73.20
15409;DHT22;7803;48.130;13.788;2023-04-25T10:28:56;23.60;73.30
15409;DHT22;7803;48.130;13.788;2023-04-25T10:32:00;23.60;74.20
15409;DHT22;7803;48.130;13.788;2023-04-25T10:35:13;23.60;73.30
15409;DHT22;7803;48.130;13.788;2023-04-25T10:38:16;23.60;73.30
15409;DHT22;7803;48.130;13.788;2023-04-25T10:41:19;23.50;73.10
15409;DHT22;7803;48.130;13.788;2023-04-25T10:44:21;23.60;73.10
15409;DHT22;7803;48.130;13.788;2023-04-25T10:47:34;23.60;73.10
15409;DHT22;7803;48.130;13.788;2023-04-25T10:50:38;23.60;73.00
15409;DHT22;7803;48.130;13.788;2023-04-25T10:53:40;23.50;72.80
15409;DHT22;7803;48.130;13.788;2023-04-25T10:56:42;23.60;72.90
15409;DHT22;7803;48.130;13.788;2023-04-25T10:59:45;23.60;73.00
15409;DHT22;7803;48.130;13.788;2023-04-25T11:02:52;23.60;73.00
15409;DHT22;7803;48.130;13.788;2023-04-25T11:05:54;23.60;73.10
15409;DHT22;7803;48.130;13.788;2023-04-25T11:08:56;23.60;73.10
15409;DHT22;7803;48.130;13.788;2023-04-25T11:11:59;23.60;73.20
15409;DHT22;7803;48.130;13.788;2023-04-25T11:15:03;23.60;73.20
15409;DHT22;7803;48.130;13.788;2023-04-25T11:18:06;23.60;73.20
15409;DHT22;7803;48.130;13.788;2023-04-25T11:21:09;23.60;73.20
15409;DHT22;7803;48.130;13.788;2023-04-25T11:24:11;23.60;73.20
15409;DHT22;7803;48.130;13.788;2023-04-25T11:27:14;23.60;73.20
15409;DHT22;7803;48.130;13.788;2023-04-25T11:30:16;23.60;73.30
15409;DHT22;7803;48.130;13.788;2023-04-25T11:33:23;23.60;73.30
15409;DHT22;7803;48.130;13.788;2023-04-25T11:36:26;23.60;73.20
15409;DHT22;7803;48.130;13.788;2023-04-25T11:39:28;23.60;73.20
15409;DHT22;7803;48.130;13.788;2023-04-25T11:42:30;23.60;73.30
15409;DHT22;7803;48.130;13.788;2023-04-25T11:45:33;23.60;73.40
15409;DHT22;7803;48.130;13.788;2023-04-25T11:48:38;23.60;73.40
15409;DHT22;7803;48.130;13.788;2023-04-25T11:51:40;23.60;73.40
15409;DHT22;7803;48.130;13.788;2023-04-25T11:54:44;23.60;73.30
15409;DHT22;7803;48.130;13.788;2023-04-25T11:57:48;23.60;73.30
15409;DHT22;7803;48.130;13.788;2023-04-25T12:00:51;23.60;73.30
15409;DHT22;7803;48.130;13.788;2023-04-25T12:03:54;23.60;73.30
15409;DHT22;7803;48.130;13.788;2023-04-25T12:06:56;23.60;73.30
15409;DHT22;7803;48.130;13.788;2023-04-25T12:09:58;23.60;73.30
15409;DHT22;7803;48.130;13.788;2023-04-25T12:13:00;23.60;73.50
15409;DHT22;7803;48.130;13.788;2023-04-25T12:16:19;23.60;73.40
15409;DHT22;7803;48.130;13.788;2023-04-25T12:19:22;23.70;73.50
15409;DHT22;7803;48.130;13.788;2023-04-25T12:22:24;23.60;73.30
15409;DHT22;7803;48.130;13.788;2023-04-25T12:25:36;23.60;73.00
15409;DHT22;7803;48.130;13.788;2023-04-25T12:28:38;23.60;73.00
15409;DHT22;7803;48.130;13.788;2023-04-25T12:31:41;23.60;72.90
15409;DHT22;7803;48.130;13.788;2023-04-25T12:34:44;23.60;72.80
15409;DHT22;7803;48.130;13.788;2023-04-25T12:37:46;23.70;72.70
15409;DHT22;7803;48.130;13.788;2023-04-25T12:40:49;23.60;72.20
15409;DHT22;7803;48.130;13.788;2023-04-25T12:43:51;23.60;72.10
15409;DHT22;7803;48.130;13.788;2023-04-25T12:46:53;23.60;72.10
15409;DHT22;7803;48.130;13.788;2023-04-25T12:49:58;23.60;72.40
15409;DHT22;7803;48.130;13.788;2023-04-25T12:53:00;23.60;72.50
15409;DHT22;7803;48.130;13.788;2023-04-25T12:56:02;23.60;72.50
15409;DHT22;7803;48.130;13.788;2023-04-25T12:59:04;23.60;72.20
15409;DHT22;7803;48.130;13.788;2023-04-25T13:02:06;23.60;72.00
15409;DHT22;7803;48.130;13.788;2023-04-25T13:05:10;23.60;72.00
15409;DHT22;7803;48.130;13.788;2023-04-25T13:08:12;23.60;72.00
15409;DHT22;7803;48.130;13.788;2023-04-25T13:11:14;23.60;71.80
15409;DHT22;7803;48.130;13.788;2023-04-25T13:14:16;23.60;72.00
15409;DHT22;7803;48.130;13.788;2023-04-25T13:17:18;23.60;72.40
15409;DHT22;7803;48.130;13.788;2023-04-25T13:20:22;23.60;72.50
15409;DHT22;7803;48.130;13.788;2023-04-25T13:23:25;23.60;72.50
15409;DHT22;7803;48.130;13.788;2023-04-25T13:26:27;23.60;72.30
15409;DHT22;7803;48.130;13.788;2023-04-25T13:29:29;23.60;72.30
15409;DHT22;7803;48.130;13.788;2023-04-25T13:32:32;23.60;72.40
15409;DHT22;7803;48.130;13.788;2023-04-25T13:35:36;23.60;72.40
15409;DHT22;7803;48.130;13.788;2023-04-25T13:38:38;23.60;72.50
15409;DHT22;7803;48.130;13.788;2023-04-25T13:41:42;23.60;72.30
15409;DHT22;7803;48.130;13.788;2023-04-25T13:44:44;23.60;72.20
15409;DHT22;7803;48.130;13.788;2023-04-25T13:47:46;23.70;72.40
15409;DHT22;7803;48.130;13.788;2023-04-25T13:50:50;23.70;72.50
15409;DHT22;7803;48.130;13.788;2023-04-25T13:53:52;23.70;72.00
15409;DHT22;7803;48.130;13.788;2023-04-25T13:56:54;23.70;72.50
15409;DHT22;7803;48.130;13.788;2023-04-25T13:59:59;23.70;72.50
15409;DHT22;7803;48.130;13.788;2023-04-25T14:03:05;23.70;72.60
15409;DHT22;7803;48.130;13.788;2023-04-25T14:06:09;23.70;72.60
15409;DHT22;7803;48.130;13.788;2023-04-25T14:09:11;23.70;73.50
15409;DHT22;7803;48.130;13.788;2023-04-25T14:12:14;23.70;72.70
15409;DHT22;7803;48.130;13.788;2023-04-25T14:15:16;23.70;72.70
15409;DHT22;7803;48.130;13.788;2023-04-25T14:18:17;23.70;72.50
15409;DHT22;7803;48.130;13.788;2023-04-25T14:21:21;23.70;72.70
15409;DHT22;7803;48.130;13.788;2023-04-25T14:24:23;23.70;72.60
15409;DHT22;7803;48.130;13.788;2023-04-25T14:27:25;23.70;72.70
15409;DHT22;7803;48.130;13.788;2023-04-25T14:30:28;23.70;72.60
15409;DHT22;7803;48.130;13.788;2023-04-25T14:33:30;23.70;72.30
15409;DHT22;7803;48.130;13.788;2023-04-25T14:36:34;23.70;72.30
15409;DHT22;7803;48.130;13.788;2023-04-25T14:39:36;23.70;72.30
15409;DHT22;7803;48.130;13.788;2023-04-25T14:42:39;23.70;72.00
15409;DHT22;7803;48.130;13.788;2023-04-25T14:45:41;23.70;72.00
15409;DHT22;7803;48.130;13.788;2023-04-25T14:48:43;23.70;72.00
15409;DHT22;7803;48.130;13.788;2023-04-25T14:51:47;23.70;71.90
15409;DHT22;7803;48.130;13.788;2023-04-25T14:54:49;23.70;72.00
15409;DHT22;7803;48.130;13.788;2023-04-25T14:57:53;23.70;71.80
15409;DHT22;7803;48.130;13.788;2023-04-25T15:00:55;23.70;71.60
15409;DHT22;7803;48.130;13.788;2023-04-25T15:03:57;23.70;71.60
15409;DHT22;7803;48.130;13.788;2023-04-25T15:07:01;23.70;71.40
15409;DHT22;7803;48.130;13.788;2023-04-25T15:10:04;23.70;71.30
15409;DHT22;7803;48.130;13.788;2023-04-25T15:13:06;23.70;71.40
15409;DHT22;7803;48.130;13.788;2023-04-25T15:16:09;23.70;71.50
15409;DHT22;7803;48.130;13.788;2023-04-25T15:19:12;23.70;71.40
15409;DHT22;7803;48.130;13.788;2023-04-25T15:22:15;23.70;71.60
15409;DHT22;7803;48.130;13.788;2023-04-25T15:25:17;23.70;71.60
15409;DHT22;7803;48.130;13.788;2023-04-25T15:28:19;23.70;71.60
15409;DHT22;7803;48.130;13.788;2023-04-25T15:31:22;23.70;71.60
15409;DHT22;7803;48.130;13.788;2023-04-25T15:34:24;23.70;71.60
15409;DHT22;7803;48.130;13.788;2023-04-25T15:37:27;23.70;71.50
15409;DHT22;7803;48.130;13.788;2023-04-25T15:40:30;23.70;71.50
15409;DHT22;7803;48.130;13.788;2023-04-25T15:43:32;23.70;71.50
15409;DHT22;7803;48.130;13.788;2023-04-25T15:46:36;23.70;71.40
15409;DHT22;7803;48.130;13.788;2023-04-25T15:49:38;23.70;71.10
15409;DHT22;7803;48.130;13.788;2023-04-25T15:52:42;23.70;71.10
15409;DHT22;7803;48.130;13.788;2023-04-25T15:55:44;23.70;70.90
15409;DHT22;7803;48.130;13.788;2023-04-25T15:58:47;23.70;71.00
15409;DHT22;7803;48.130;13.788;2023-04-25T16:01:49;23.70;71.10
15409;DHT22;7803;48.130;13.788;2023-04-25T16:04:51;23.70;71.30
15409;DHT22;7803;48.130;13.788;2023-04-25T16:07:54;23.60;71.30
15409;DHT22;7803;48.130;13.788;2023-04-25T16:10:56;23.70;71.50
15409;DHT22;7803;48.130;13.788;2023-04-25T16:13:58;23.70;71.50
15409;DHT22;7803;48.130;13.788;2023-04-25T16:17:00;23.70;71.50
15409;DHT22;7803;48.130;13.788;2023-04-25T16:20:02;23.60;71.60
15409;DHT22;7803;48.130;13.788;2023-04-25T16:23:10;23.70;71.60
15409;DHT22;7803;48.130;13.788;2023-04-25T16:26:12;23.70;71.60
15409;DHT22;7803;48.130;13.788;2023-04-25T16:29:14;23.70;71.60
15409;DHT22;7803;48.130;13.788;2023-04-25T16:32:17;23.70;71.70
15409;DHT22;7803;48.130;13.788;2023-04-25T16:35:20;23.70;71.80
15409;DHT22;7803;48.130;13.788;2023-04-25T16:38:24;23.70;71.80
15409;DHT22;7803;48.130;13.788;2023-04-25T16:41:26;23.60;71.80
15409;DHT22;7803;48.130;13.788;2023-04-25T16:44:28;23.70;71.90
15409;DHT22;7803;48.130;13.788;2023-04-25T16:47:30;23.70;71.90
15409;DHT22;7803;48.130;13.788;2023-04-25T16:50:32;23.60;71.80
15409;DHT22;7803;48.130;13.788;2023-04-25T16:53:36;23.70;71.90
15409;DHT22;7803;48.130;13.788;2023-04-25T16:56:38;23.70;71.90
15409;DHT22;7803;48.130;13.788;2023-04-25T16:59:41;23.70;71.90
15409;DHT22;7803;48.130;13.788;2023-04-25T17:02:43;23.70;72.00
15409;DHT22;7803;48.130;13.788;2023-04-25T17:05:47;23.70;72.00
15409;DHT22;7803;48.130;13.788;2023-04-25T17:08:51;23.60;72.00
15409;DHT22;7803;48.130;13.788;2023-04-25T17:11:53;23.60;72.00
15409;DHT22;7803;48.130;13.788;2023-04-25T17:14:55;23.60;72.00
15409;DHT22;7803;48.130;13.788;2023-04-25T17:17:59;23.60;72.00
15409;DHT22;7803;48.130;13.788;2023-04-25T17:21:02;23.60;72.10
15409;DHT22;7803;48.130;13.788;2023-04-25T17:24:07;23.60;72.10
15409;DHT22;7803;48.130;13.788;2023-04-25T17:27:12;23.60;72.20
15409;DHT22;7803;48.130;13.788;2023-04-25T17:30:15;23.60;72.20
15409;DHT22;7803;48.130;13.788;2023-04-25T17:33:17;23.60;72.20
15409;DHT22;7803;48.130;13.788;2023-04-25T17:36:19;23.60;72.20
15409;DHT22;7803;48.130;13.788;2023-04-25T17:39:24;23.60;72.10
15409;DHT22;7803;48.130;13.788;2023-04-25T17:42:26;23.60;72.10
15409;DHT22;7803;48.130;13.788;2023-04-25T17:45:28;23.70;72.10
15409;DHT22;7803;48.130;13.788;2023-04-25T17:48:34;23.60;72.10
15409;DHT22;7803;48.130;13.788;2023-04-25T17:51:36;23.70;72.20
15409;DHT22;7803;48.130;13.788;2023-04-25T17:54:40;23.60;72.10
15409;DHT22;7803;48.130;13.788;2023-04-25T17:57:42;23.70;72.20
15409;DHT22;7803;48.130;13.788;2023-04-25T18:00:44;23.70;72.10
15409;DHT22;7803;48.130;13.788;2023-04-25T18:03:46;23.70;72.10
15409;DHT22;7803;48.130;13.788;2023-04-25T18:06:50;23.70;72.00
15409;DHT22;7803;48.130;13.788;2023-04-25T18:09:53;23.70;72.00
15409;DHT22;7803;48.130;13.788;2023-04-25T18:12:56;23.70;72.00
15409;DHT22;7803;48.130;13.788;2023-04-25T18:15:58;23.70;72.00
15409;DHT22;7803;48.130;13.788;2023-04-25T18:19:01;23.60;71.80
15409;DHT22;7803;48.130;13.788;2023-04-25T18:22:05;23.70;71.90
15409;DHT22;7803;48.130;13.788;2023-04-25T18:25:09;23.70;71.80
15409;DHT22;7803;48.130;13.788;2023-04-25T18:28:13;23.60;71.80
15409;DHT22;7803;48.130;13.788;2023-04-25T18:31:16;23.70;71.90
15409;DHT22;7803;48.130;13.788;2023-04-25T18:34:22;23.70;72.70
15409;DHT22;7803;48.130;13.788;2023-04-25T18:37:24;23.70;71.70
15409;DHT22;7803;48.130;13.788;2023-04-25T18:40:29;23.70;71.70
15409;DHT22;7803;48.130;13.788;2023-04-25T18:43:32;23.70;71.70
15409;DHT22;7803;48.130;13.788;2023-04-25T18:46:34;23.70;71.70
15409;DHT22;7803;48.130;13.788;2023-04-25T18:49:37;23.70;71.60
15409;DHT22;7803;48.130;13.788;2023-04-25T18:52:42;23.70;71.60
15409;DHT22;7803;48.130;13.788;2023-04-25T18:55:46;23.60;71.60
15409;DHT22;7803;48.130;13.788;2023-04-25T18:58:49;23.70;71.60
15409;DHT22;7803;48.130;13.788;2023-04-25T19:01:53;23.60;71.50
15409;DHT22;7803;48.130;13.788;2023-04-25T19:04:55;23.70;71.60
15409;DHT22;7803;48.130;13.788;2023-04-25T19:07:58;23.70;71.60
15409;DHT22;7803;48.130;13.788;2023-04-25T19:11:04;23.70;71.60
15409;DHT22;7803;48.130;13.788;2023-04-25T19:14:06;23.70;71.60